Time;durP1;ratioP1;P1;durP2;ratioP2;P2;SDS_P1;SDS_P2;PMS_P1;PMS_P2;Temp;Humidity;BMP_temperature;BMP_pressure;BME280_temperature;BME280_humidity;BME280_pressure;Samples;Min_cycle;Max_cycle;Signal;HPM_P1;HPM_P2
2021/01/09 09:48:33;;;;;;;20.70;8.93;;;1.80;99.90;;;;;;5109358;22;20290;-71
2021/01/09 09:51:04;;;;;;;24.17;9.27;;;1.80;99.90;;;;;;5054426;28;20294;-72
2021/01/09 09:53:33;;;;;;;20.97;9.63;;;1.90;99.90;;;;;;5051071;28;20219;-72
2021/01/09 09:56:13;;;;;;;24.10;9.30;;;2.00;99.90;;;;;;5054639;28;20224;-71
2021/01/09 09:58:39;;;;;;;18.07;7.80;;;2.10;99.90;;;;;;5054927;28;20670;-72
2021/01/09 10:01:18;;;;;;;19.03;7.87;;;2.20;99.90;;;;;;5054968;28;20212;-72
2021/01/09 10:03:44;;;;;;;18.50;6.90;;;2.40;99.90;;;;;;5055076;28;20200;-72
2021/01/09 10:06:12;;;;;;;16.10;6.40;;;2.50;99.90;;;;;;5054595;28;20239;-73
2021/01/09 10:08:38;;;;;;;16.73;6.47;;;2.60;99.90;;;;;;5054502;28;20508;-72
2021/01/09 10:11:05;;;;;;;15.13;6.17;;;2.70;99.90;;;;;;5054619;28;20228;-72
2021/01/09 10:13:32;;;;;;;14.03;6.03;;;2.70;99.90;;;;;;5054843;28;20200;-72
2021/01/09 10:15:59;;;;;;;13.73;5.80;;;2.70;99.90;;;;;;5054671;28;20228;-72
2021/01/09 10:18:26;;;;;;;13.57;6.10;;;2.80;99.90;;;;;;5054518;28;20208;-72
2021/01/09 10:20:53;;;;;;;10.70;5.43;;;2.90;99.90;;;;;;5054428;28;20330;-72
2021/01/09 10:23:20;;;;;;;13.33;6.17;;;3.10;99.90;;;;;;5053797;28;20211;-72
2021/01/09 10:25:46;;;;;;;13.03;5.47;;;3.20;99.90;;;;;;5054815;28;20235;-72
2021/01/09 10:28:13;;;;;;;15.60;6.63;;;3.30;99.90;;;;;;5054826;28;20209;-72
2021/01/09 10:30:39;;;;;;;14.57;6.37;;;3.40;99.90;;;;;;5054254;28;20239;-72
2021/01/09 10:33:06;;;;;;;10.93;5.47;;;3.40;99.90;;;;;;5054476;28;20196;-69
2021/01/09 10:35:32;;;;;;;14.90;5.67;;;3.50;99.90;;;;;;5053922;28;20354;-72
2021/01/09 10:37:58;;;;;;;15.83;6.57;;;3.40;99.90;;;;;;5054008;28;20204;-71
2021/01/09 10:40:25;;;;;;;12.43;5.83;;;3.50;99.90;;;;;;5052957;28;20236;-73
2021/01/09 10:42:52;;;;;;;14.23;6.60;;;3.50;99.90;;;;;;5053484;28;20230;-72
2021/01/09 10:45:18;;;;;;;12.30;5.37;;;3.60;99.90;;;;;;5053391;28;20224;-72
2021/01/09 10:47:44;;;;;;;10.80;5.50;;;3.60;99.90;;;;;;5053696;28;20214;-72
2021/01/09 10:50:11;;;;;;;11.97;5.83;;;3.70;99.90;;;;;;5053293;28;20219;-72
2021/01/09 10:52:38;;;;;;;12.13;5.57;;;3.70;99.90;;;;;;5052887;28;20562;-72
2021/01/09 10:55:05;;;;;;;10.23;5.27;;;3.70;99.90;;;;;;5053347;28;20227;-72
2021/01/09 10:57:33;;;;;;;12.27;5.37;;;3.60;99.90;;;;;;5053589;28;20215;-72
2021/01/09 10:59:59;;;;;;;10.77;5.43;;;3.80;99.90;;;;;;5053303;28;20204;-73
2021/01/09 11:02:25;;;;;;;13.37;5.90;;;3.80;99.90;;;;;;5053401;28;20208;-72
2021/01/09 11:04:52;;;;;;;14.73;6.33;;;3.90;99.90;;;;;;5052050;28;20204;-72
2021/01/09 11:07:18;;;;;;;20.00;6.90;;;3.90;99.90;;;;;;5052821;28;20674;-73
2021/01/09 11:09:44;;;;;;;19.13;6.70;;;3.90;99.90;;;;;;5053291;28;20261;-72
2021/01/09 11:12:10;;;;;;;12.57;5.10;;;4.00;99.90;;;;;;5053169;28;20583;-73
2021/01/09 11:14:37;;;;;;;10.93;5.67;;;4.10;99.90;;;;;;5052796;28;20211;-72
2021/01/09 11:17:04;;;;;;;13.07;5.73;;;4.20;99.90;;;;;;5040473;28;20591;-71
2021/01/09 11:19:30;;;;;;;13.77;6.43;;;4.20;99.90;;;;;;5031253;28;20208;-71
2021/01/09 11:22:01;;;;;;;15.83;6.50;;;4.30;99.90;;;;;;5032715;28;20216;-71
2021/01/09 11:24:29;;;;;;;10.97;4.87;;;4.50;99.90;;;;;;5032853;28;20212;-71
2021/01/09 11:26:59;;;;;;;13.67;5.40;;;4.60;99.90;;;;;;5032818;28;20232;-71
2021/01/09 11:29:26;;;;;;;13.20;6.47;;;4.50;99.90;;;;;;5032710;28;20702;-71
2021/01/09 11:31:57;;;;;;;12.70;5.53;;;4.40;99.90;;;;;;5032715;28;20229;-71
2021/01/09 11:34:24;;;;;;;10.40;5.63;;;4.30;99.90;;;;;;5032546;28;20667;-72
2021/01/09 11:36:50;;;;;;;12.13;5.27;;;4.30;99.90;;;;;;5032407;28;20228;-71
2021/01/09 11:39:17;;;;;;;10.93;4.80;;;4.40;99.90;;;;;;5032625;28;20201;-71
2021/01/09 11:41:43;;;;;;;12.83;5.53;;;4.60;99.90;;;;;;5032730;28;20235;-70
2021/01/09 11:44:09;;;;;;;11.60;5.00;;;4.70;99.90;;;;;;5032257;28;20209;-71
2021/01/09 11:46:35;;;;;;;10.50;4.90;;;4.70;99.90;;;;;;5032206;28;20579;-71
2021/01/09 11:49:03;;;;;;;12.10;4.90;;;4.50;99.90;;;;;;5032308;28;20679;-71
2021/01/09 11:51:29;;;;;;;13.30;5.40;;;4.70;99.90;;;;;;5032249;28;20228;-72
2021/01/09 11:53:55;;;;;;;12.23;5.50;;;4.90;99.90;;;;;;5033180;28;20610;-72
2021/01/09 11:56:22;;;;;;;11.83;5.00;;;5.10;99.90;;;;;;5032629;28;20740;-72
2021/01/09 11:58:48;;;;;;;13.13;5.80;;;5.30;99.90;;;;;;5032728;28;20209;-71
2021/01/09 12:01:15;;;;;;;13.00;4.60;;;5.40;99.90;;;;;;5032833;28;20220;-71
2021/01/09 12:03:41;;;;;;;12.90;4.90;;;5.40;99.90;;;;;;5032913;28;20251;-71
2021/01/09 12:06:08;;;;;;;10.57;4.43;;;5.50;99.90;;;;;;5032523;28;20278;-71
2021/01/09 12:08:35;;;;;;;11.93;5.20;;;5.50;99.90;;;;;;5032626;28;20209;-71
2021/01/09 12:11:01;;;;;;;9.27;4.97;;;5.50;99.90;;;;;;5032584;28;20233;-72
2021/01/09 12:13:27;;;;;;;8.67;4.30;;;5.60;99.90;;;;;;5027385;28;20208;-72
2021/01/09 12:15:54;;;;;;;11.00;4.67;;;5.50;99.90;;;;;;5023205;28;20271;-71
2021/01/09 12:18:21;;;;;;;10.13;4.50;;;5.60;99.90;;;;;;5022457;28;20565;-72
2021/01/09 12:20:48;;;;;;;11.33;4.83;;;5.60;99.90;;;;;;5021770;28;20291;-72
2021/01/09 12:23:16;;;;;;;11.10;4.83;;;5.50;99.90;;;;;;5023421;28;20204;-71
2021/01/09 12:25:42;;;;;;;11.20;5.43;;;5.60;99.90;;;;;;5023620;28;20240;-72
2021/01/09 12:28:09;;;;;;;10.03;4.70;;;5.50;99.90;;;;;;5032634;28;20693;-71
2021/01/09 12:30:35;;;;;;;10.47;5.03;;;5.50;99.90;;;;;;5032851;28;20224;-71
2021/01/09 12:33:02;;;;;;;12.23;5.17;;;5.60;99.90;;;;;;5033008;28;20212;-71
2021/01/09 12:35:28;;;;;;;9.03;4.73;;;5.60;99.90;;;;;;5032943;28;20234;-74
2021/01/09 12:37:54;;;;;;;11.60;5.10;;;5.70;99.90;;;;;;5032738;28;20204;-71
2021/01/09 12:40:21;;;;;;;8.83;4.67;;;5.70;99.90;;;;;;5032726;28;20209;-72
2021/01/09 12:42:48;;;;;;;8.23;5.13;;;5.70;99.90;;;;;;5033406;28;20205;-71
2021/01/09 12:45:15;;;;;;;10.80;5.50;;;5.80;99.90;;;;;;5032576;28;20232;-71
2021/01/09 12:47:44;;;;;;;11.90;5.77;;;5.90;99.90;;;;;;5032672;28;20212;-71
2021/01/09 12:50:11;;;;;;;11.80;4.90;;;5.90;99.90;;;;;;5032739;28;20232;-71
2021/01/09 12:52:37;;;;;;;13.37;4.63;;;5.90;99.90;;;;;;5032788;28;20209;-71
2021/01/09 12:55:05;;;;;;;8.90;4.87;;;5.90;99.90;;;;;;5032687;28;20237;-72
2021/01/09 12:57:32;;;;;;;11.47;5.03;;;5.90;99.90;;;;;;5032524;28;20209;-72
2021/01/09 12:59:58;;;;;;;11.10;5.40;;;5.90;99.90;;;;;;5032687;28;20216;-73
2021/01/09 13:02:24;;;;;;;10.70;4.93;;;6.00;99.90;;;;;;5033703;28;20204;-72
2021/01/09 13:04:50;;;;;;;9.93;4.63;;;6.00;99.90;;;;;;5036364;28;20288;-72
2021/01/09 13:07:17;;;;;;;6.53;4.37;;;6.00;99.90;;;;;;5036523;28;20213;-71
2021/01/09 13:09:43;;;;;;;9.60;4.03;;;6.10;99.90;;;;;;5036462;28;20208;-71
2021/01/09 13:12:09;;;;;;;9.60;4.53;;;6.40;99.90;;;;;;5036345;28;20240;-71
2021/01/09 13:14:36;;;;;;;11.73;4.60;;;6.50;99.90;;;;;;5036268;28;20694;-71
2021/01/09 13:17:03;;;;;;;12.70;4.53;;;6.50;99.90;;;;;;5036297;28;20703;-71
2021/01/09 13:19:33;;;;;;;11.30;4.40;;;6.50;99.90;;;;;;5036399;28;20216;-71
2021/01/09 13:22:00;;;;;;;9.33;3.90;;;6.40;99.90;;;;;;5036181;28;20205;-72
2021/01/09 13:24:28;;;;;;;10.00;4.20;;;6.30;99.90;;;;;;5036165;28;20204;-72
2021/01/09 13:26:54;;;;;;;10.50;4.03;;;6.30;99.90;;;;;;5036113;28;20257;-72
2021/01/09 13:29:21;;;;;;;9.43;4.13;;;6.30;99.90;;;;;;5035956;28;20212;-72
2021/01/09 13:31:48;;;;;;;8.40;3.83;;;6.20;99.90;;;;;;5036082;28;20252;-71
2021/01/09 13:34:14;;;;;;;5.23;2.70;;;6.10;99.90;;;;;;5035724;28;20212;-71
2021/01/09 13:36:43;;;;;;;6.33;2.70;;;6.20;99.90;;;;;;5035648;28;20229;-71
2021/01/09 13:39:11;;;;;;;9.90;3.37;;;6.30;99.90;;;;;;5035799;28;20204;-71
2021/01/09 13:41:38;;;;;;;7.20;3.10;;;6.30;99.90;;;;;;5035647;28;20220;-71
2021/01/09 13:44:05;;;;;;;6.00;3.20;;;6.50;99.90;;;;;;5035976;28;20211;-71
2021/01/09 13:46:32;;;;;;;5.73;2.90;;;6.60;99.90;;;;;;5035813;28;20622;-71
2021/01/09 13:49:00;;;;;;;7.00;3.47;;;6.70;99.90;;;;;;5035641;28;20582;-73
2021/01/09 13:51:29;;;;;;;8.67;3.53;;;6.70;99.90;;;;;;5035407;28;20232;-71
2021/01/09 13:53:55;;;;;;;7.07;3.23;;;6.80;99.90;;;;;;5035567;28;20209;-71
2021/01/09 13:56:31;;;;;;;7.07;3.47;;;6.70;99.90;;;;;;5035690;28;20221;-71
2021/01/09 13:58:58;;;;;;;5.83;2.37;;;6.50;99.90;;;;;;5035443;28;20207;-72
2021/01/09 14:01:24;;;;;;;4.10;2.23;;;6.30;99.90;;;;;;5035650;28;20205;-72
2021/01/09 14:03:50;;;;;;;5.43;2.50;;;6.40;99.90;;;;;;5035278;28;20213;-71
2021/01/09 14:06:17;;;;;;;6.07;2.53;;;6.50;99.90;;;;;;5035065;28;20221;-71
2021/01/09 14:08:44;;;;;;;3.67;2.20;;;6.60;99.90;;;;;;5035468;28;20209;-71
2021/01/09 14:11:10;;;;;;;7.07;2.30;;;6.60;99.90;;;;;;5035367;28;20229;-72
2021/01/09 14:13:36;;;;;;;3.63;2.17;;;6.50;99.90;;;;;;5035097;28;20224;-71
2021/01/09 14:16:03;;;;;;;3.80;2.30;;;6.50;99.90;;;;;;5034850;28;20229;-72
2021/01/09 14:18:29;;;;;;;6.63;2.40;;;6.60;99.90;;;;;;5035240;28;20619;-71
2021/01/09 14:20:56;;;;;;;8.00;3.27;;;6.60;99.90;;;;;;5034801;28;20217;-71
2021/01/09 14:23:23;;;;;;;14.70;2.40;;;6.70;99.90;;;;;;5035251;28;20216;-73
2021/01/09 14:25:51;;;;;;;5.67;3.13;;;6.70;99.90;;;;;;5035097;28;20225;-72
2021/01/09 14:28:17;;;;;;;7.57;4.00;;;6.60;99.90;;;;;;5035122;28;20201;-71
2021/01/09 14:30:45;;;;;;;8.50;3.80;;;6.40;99.90;;;;;;5034900;28;20220;-71
2021/01/09 14:33:11;;;;;;;9.17;3.80;;;6.30;99.90;;;;;;5034706;28;20259;-71
2021/01/09 14:35:38;;;;;;;10.97;3.53;;;6.20;99.90;;;;;;5034490;28;20229;-71
2021/01/09 14:38:04;;;;;;;7.53;3.53;;;6.30;99.90;;;;;;5034866;28;20209;-72
2021/01/09 14:40:31;;;;;;;9.93;3.57;;;6.40;99.90;;;;;;5034652;28;20676;-71
2021/01/09 14:42:58;;;;;;;8.40;4.30;;;6.30;99.90;;;;;;5034719;28;20208;-71
2021/01/09 14:45:25;;;;;;;17.17;6.60;;;6.50;99.90;;;;;;5034590;28;20228;-72
2021/01/09 14:47:51;;;;;;;14.53;6.10;;;6.50;99.90;;;;;;5034807;28;20559;-71
2021/01/09 14:50:17;;;;;;;9.70;4.57;;;6.30;99.90;;;;;;5034265;28;20694;-72
2021/01/09 14:52:43;;;;;;;12.37;4.57;;;6.20;99.90;;;;;;5034588;28;20259;-71
2021/01/09 14:55:10;;;;;;;9.87;4.63;;;6.20;99.90;;;;;;5034546;28;20254;-72
2021/01/09 14:57:37;;;;;;;9.57;4.50;;;6.10;99.90;;;;;;5034381;28;20205;-72
2021/01/09 15:00:05;;;;;;;10.07;4.47;;;5.90;99.90;;;;;;5034351;28;20205;-72
2021/01/09 15:02:31;;;;;;;11.97;4.43;;;5.90;99.90;;;;;;5034202;28;20208;-71
2021/01/09 15:04:58;;;;;;;7.87;3.90;;;5.90;99.90;;;;;;5034108;28;20205;-72
2021/01/09 15:07:24;;;;;;;10.93;5.03;;;5.90;99.90;;;;;;5034388;28;20208;-71
2021/01/09 15:09:50;;;;;;;12.30;4.90;;;5.80;99.90;;;;;;5034296;28;20208;-71
2021/01/09 15:12:17;;;;;;;10.20;5.23;;;5.80;99.90;;;;;;5034141;28;20248;-71
2021/01/09 15:14:44;;;;;;;11.57;5.60;;;5.70;99.90;;;;;;5033948;28;20299;-71
2021/01/09 15:17:10;;;;;;;11.30;4.53;;;5.70;99.90;;;;;;5034010;28;20212;-72
2021/01/09 15:19:38;;;;;;;10.40;4.80;;;5.60;99.90;;;;;;5033906;28;20208;-72
2021/01/09 15:22:04;;;;;;;10.37;5.10;;;5.60;99.90;;;;;;5034078;28;20227;-71
2021/01/09 15:24:31;;;;;;;9.13;4.80;;;5.50;99.90;;;;;;5034008;28;20274;-71
2021/01/09 15:26:58;;;;;;;16.07;6.17;;;5.40;99.90;;;;;;5032506;28;20706;-72
2021/01/09 15:29:24;;;;;;;12.83;5.83;;;5.30;99.90;;;;;;5033736;28;20205;-73
2021/01/09 15:31:52;;;;;;;10.73;4.80;;;5.20;99.90;;;;;;5033564;28;20232;-72
2021/01/09 15:34:19;;;;;;;10.67;4.73;;;5.10;99.90;;;;;;5033664;28;20206;-71
2021/01/09 15:36:46;;;;;;;13.97;7.10;;;5.00;99.90;;;;;;5033833;28;20235;-71
2021/01/09 15:39:13;;;;;;;9.83;4.50;;;4.80;99.90;;;;;;5033714;28;20212;-71
2021/01/09 15:41:39;;;;;;;17.90;8.80;;;4.70;99.90;;;;;;5033694;28;20209;-71
2021/01/09 15:44:06;;;;;;;18.40;8.40;;;4.50;99.90;;;;;;5033574;28;20200;-71
2021/01/09 15:46:37;;;;;;;10.33;5.33;;;4.30;99.90;;;;;;5034120;28;20224;-71
2021/01/09 15:49:04;;;;;;;11.37;6.17;;;4.30;99.90;;;;;;5033286;28;20212;-72
2021/01/09 15:51:31;;;;;;;10.33;5.50;;;4.10;99.90;;;;;;5033521;28;20229;-73
2021/01/09 15:53:58;;;;;;;9.33;4.73;;;4.00;99.90;;;;;;5033490;28;20212;-72
2021/01/09 15:56:24;;;;;;;7.53;4.47;;;4.00;99.90;;;;;;5033342;28;20220;-72
2021/01/09 15:58:50;;;;;;;8.07;4.43;;;4.00;99.90;;;;;;5033256;28;20200;-71
2021/01/09 16:01:16;;;;;;;8.97;4.77;;;3.90;99.90;;;;;;5033466;28;20213;-71
2021/01/09 16:03:43;;;;;;;8.70;4.70;;;3.80;99.90;;;;;;5033400;28;20205;-73
2021/01/09 16:06:11;;;;;;;11.67;5.20;;;3.70;99.90;;;;;;5033174;28;20232;-72
2021/01/09 16:08:39;;;;;;;11.70;6.77;;;3.60;99.90;;;;;;5033217;28;20201;-71
2021/01/09 16:11:10;;;;;;;9.70;6.20;;;3.50;99.90;;;;;;5033290;28;20240;-71
2021/01/09 16:13:37;;;;;;;12.23;7.30;;;3.40;99.90;;;;;;5033045;28;20220;-73
2021/01/09 16:16:03;;;;;;;12.90;7.77;;;3.30;99.90;;;;;;5033112;28;20225;-71
2021/01/09 16:18:29;;;;;;;15.43;8.50;;;3.20;99.90;;;;;;5032902;28;20567;-72
2021/01/09 16:20:56;;;;;;;21.27;10.73;;;3.30;99.90;;;;;;5032743;28;20215;-71
2021/01/09 16:23:23;;;;;;;17.43;10.00;;;3.40;99.90;;;;;;5032995;28;20201;-71
2021/01/09 16:25:49;;;;;;;19.93;9.93;;;3.40;99.90;;;;;;5032815;28;20225;-71
2021/01/09 16:28:16;;;;;;;21.03;10.80;;;3.40;99.90;;;;;;5032797;28;20536;-71
2021/01/09 16:30:44;;;;;;;23.27;12.53;;;3.50;99.90;;;;;;5032858;28;20216;-71
2021/01/09 16:33:17;;;;;;;26.20;12.30;;;3.60;99.90;;;;;;5033063;28;20606;-71
2021/01/09 16:35:44;;;;;;;22.47;12.87;;;3.60;99.90;;;;;;5032869;28;20228;-71
2021/01/09 16:38:10;;;;;;;28.13;12.43;;;3.50;99.90;;;;;;5035176;28;20215;-71
2021/01/09 16:40:38;;;;;;;23.07;12.83;;;3.40;99.90;;;;;;5036813;28;20663;-71
2021/01/09 16:43:05;;;;;;;24.03;13.03;;;3.40;99.90;;;;;;5037116;28;20205;-71
2021/01/09 16:45:32;;;;;;;23.67;12.10;;;3.50;99.90;;;;;;5037066;28;20232;-71
2021/01/09 16:47:58;;;;;;;21.80;12.23;;;3.40;99.90;;;;;;5037000;28;20224;-72
2021/01/09 16:50:26;;;;;;;23.33;11.73;;;3.30;99.90;;;;;;5036408;28;20215;-73
2021/01/09 16:52:52;;;;;;;19.23;10.93;;;3.30;99.90;;;;;;5036575;28;20710;-71
2021/01/09 16:55:20;;;;;;;19.67;10.70;;;3.20;99.90;;;;;;5036708;28;20571;-71
2021/01/09 16:57:52;;;;;;;21.67;12.40;;;3.10;99.90;;;;;;5036455;28;20287;-72
2021/01/09 17:00:19;;;;;;;23.27;11.67;;;3.00;99.90;;;;;;5036513;28;20205;-71
2021/01/09 17:02:46;;;;;;;22.00;11.70;;;3.00;99.90;;;;;;5036655;28;20355;-71
2021/01/09 17:05:12;;;;;;;22.50;12.17;;;3.10;99.90;;;;;;5036455;28;20225;-71
2021/01/09 17:07:39;;;;;;;22.40;13.00;;;3.20;99.90;;;;;;5036276;28;20587;-72
2021/01/09 17:10:06;;;;;;;24.07;12.50;;;3.20;99.90;;;;;;5036576;28;20227;-73
2021/01/09 17:12:32;;;;;;;24.77;12.20;;;3.00;99.90;;;;;;5036461;28;20723;-71
2021/01/09 17:15:00;;;;;;;18.87;11.40;;;2.90;99.90;;;;;;5036502;28;20616;-73
2021/01/09 17:17:26;;;;;;;21.30;11.40;;;2.90;99.90;;;;;;5036399;28;20686;-71
2021/01/09 17:19:53;;;;;;;25.53;12.67;;;2.90;99.90;;;;;;5036217;28;20223;-71
2021/01/09 17:22:19;;;;;;;20.00;11.30;;;2.80;99.90;;;;;;5036120;28;20213;-73
2021/01/09 17:24:45;;;;;;;22.47;11.43;;;2.90;99.90;;;;;;5036469;28;20205;-72
2021/01/09 17:27:12;;;;;;;20.13;10.67;;;2.90;99.90;;;;;;5036225;28;20264;-72
2021/01/09 17:29:39;;;;;;;22.93;11.20;;;2.80;99.90;;;;;;5036301;28;20606;-71
2021/01/09 17:32:07;;;;;;;23.97;11.47;;;2.80;99.90;;;;;;5036010;28;20233;-71
2021/01/09 17:34:34;;;;;;;21.50;10.93;;;2.80;99.90;;;;;;5036067;28;20244;-71
2021/01/09 17:37:02;;;;;;;20.97;10.30;;;2.80;99.90;;;;;;5036030;28;20228;-71
2021/01/09 17:39:29;;;;;;;18.87;10.63;;;2.80;99.90;;;;;;5036058;28;20208;-71
2021/01/09 17:41:56;;;;;;;23.87;11.00;;;2.90;99.90;;;;;;5036095;28;20201;-71
2021/01/09 17:44:23;;;;;;;21.03;11.43;;;2.90;99.90;;;;;;5035851;28;20205;-72
2021/01/09 17:46:49;;;;;;;21.50;10.53;;;3.00;99.90;;;;;;5035842;28;20228;-73
2021/01/09 17:49:17;;;;;;;25.27;11.33;;;3.10;99.90;;;;;;5034806;28;20567;-73
2021/01/09 17:51:44;;;;;;;23.93;11.23;;;3.10;99.90;;;;;;5035637;28;20239;-72
2021/01/09 17:54:12;;;;;;;19.50;10.37;;;3.00;99.90;;;;;;5035671;28;20205;-71
2021/01/09 17:56:38;;;;;;;25.70;11.50;;;3.00;99.90;;;;;;5035715;28;20228;-72
2021/01/09 17:59:04;;;;;;;21.40;10.30;;;2.90;99.90;;;;;;5035429;28;20738;-71
2021/01/09 18:01:36;;;;;;;21.30;11.27;;;2.90;99.90;;;;;;5035483;28;20209;-73
2021/01/09 18:04:02;;;;;;;27.33;12.30;;;2.90;99.90;;;;;;5035027;28;20216;-73
2021/01/09 18:06:29;;;;;;;21.27;11.13;;;2.70;99.90;;;;;;5035485;28;20228;-72
2021/01/09 18:08:55;;;;;;;20.47;11.00;;;2.70;99.90;;;;;;5035615;28;20209;-73
2021/01/09 18:11:22;;;;;;;22.13;11.80;;;2.60;99.90;;;;;;5035370;28;20229;-72
2021/01/09 18:13:48;;;;;;;20.93;11.17;;;2.60;99.90;;;;;;5035435;28;20201;-72
2021/01/09 18:16:19;;;;;;;23.07;11.93;;;2.60;99.90;;;;;;5034805;28;20731;-72
2021/01/09 18:18:45;;;;;;;19.30;10.70;;;2.50;99.90;;;;;;5035262;28;20668;-72
2021/01/09 18:21:12;;;;;;;21.77;11.03;;;2.50;99.90;;;;;;5035220;28;20243;-71
2021/01/09 18:23:39;;;;;;;22.30;11.17;;;2.40;99.90;;;;;;5035380;28;20208;-71
2021/01/09 18:26:05;;;;;;;20.93;11.13;;;2.40;99.90;;;;;;5035138;28;20232;-71
2021/01/09 18:28:31;;;;;;;21.20;10.83;;;2.40;99.90;;;;;;5034824;28;20215;-72
2021/01/09 18:30:57;;;;;;;22.67;11.57;;;2.30;99.90;;;;;;5034818;28;20560;-71
2021/01/09 18:33:24;;;;;;;27.20;12.20;;;2.30;99.90;;;;;;5035065;28;20204;-72
2021/01/09 18:35:50;;;;;;;25.50;12.67;;;2.30;99.90;;;;;;5034825;28;20235;-71
2021/01/09 18:38:16;;;;;;;25.67;11.40;;;2.20;99.90;;;;;;5034724;28;20208;-71
2021/01/09 18:40:43;;;;;;;20.83;11.93;;;2.10;99.90;;;;;;5034645;28;20660;-71
2021/01/09 18:43:09;;;;;;;26.03;12.60;;;2.00;99.90;;;;;;5034623;28;20710;-72
2021/01/09 18:45:36;;;;;;;24.00;11.60;;;1.90;99.90;;;;;;5034396;28;20232;-73
2021/01/09 18:48:02;;;;;;;24.13;11.87;;;1.90;99.90;;;;;;5034835;28;20209;-72
2021/01/09 18:50:28;;;;;;;24.23;12.17;;;1.90;99.90;;;;;;5034671;28;20267;-71
2021/01/09 18:52:54;;;;;;;28.53;13.73;;;2.00;99.90;;;;;;5034329;28;20309;-71
2021/01/09 18:55:21;;;;;;;28.77;13.30;;;2.10;99.90;;;;;;5034338;28;20277;-73
2021/01/09 18:57:48;;;;;;;21.20;12.03;;;2.00;99.90;;;;;;5034351;28;20255;-72
2021/01/09 19:00:16;;;;;;;24.80;11.50;;;2.00;99.90;;;;;;5033996;28;20205;-71
2021/01/09 19:02:42;;;;;;;25.63;12.43;;;1.90;99.90;;;;;;5034528;28;20216;-72
2021/01/09 19:05:08;;;;;;;20.83;12.10;;;1.90;99.90;;;;;;5034208;28;20224;-72
2021/01/09 19:07:35;;;;;;;27.17;13.33;;;1.80;99.90;;;;;;5034214;28;20209;-71
2021/01/09 19:10:01;;;;;;;26.80;12.73;;;1.80;99.90;;;;;;5034205;28;20540;-72
2021/01/09 19:12:31;;;;;;;23.80;12.77;;;1.80;99.90;;;;;;5034156;28;20295;-72
2021/01/09 19:14:59;;;;;;;25.87;12.73;;;1.80;99.90;;;;;;5033993;28;20575;-72
2021/01/09 19:17:26;;;;;;;21.47;11.77;;;1.80;99.90;;;;;;5034123;28;20255;-71
2021/01/09 19:19:53;;;;;;;26.23;13.40;;;1.70;99.90;;;;;;5033978;28;20205;-72
2021/01/09 19:22:19;;;;;;;25.50;13.00;;;1.70;99.90;;;;;;5033988;28;20251;-71
2021/01/09 19:24:45;;;;;;;23.63;12.23;;;1.70;99.90;;;;;;5033956;28;20208;-72
2021/01/09 19:27:11;;;;;;;24.77;12.07;;;1.70;99.90;;;;;;5033783;28;20204;-71
2021/01/09 19:29:38;;;;;;;28.23;14.40;;;1.80;99.90;;;;;;5034116;28;20207;-73
2021/01/09 19:32:05;;;;;;;26.97;13.13;;;1.90;99.90;;;;;;5034142;28;20240;-72
2021/01/09 19:34:32;;;;;;;27.20;13.50;;;1.70;99.90;;;;;;5033845;28;20205;-71
2021/01/09 19:36:58;;;;;;;27.90;13.33;;;1.70;99.90;;;;;;5033878;28;20225;-73
2021/01/09 19:39:25;;;;;;;29.97;13.90;;;1.60;99.90;;;;;;5033669;28;20725;-72
2021/01/09 19:41:51;;;;;;;23.00;11.87;;;1.60;99.90;;;;;;5034084;28;20216;-72
2021/01/09 19:44:18;;;;;;;28.40;12.73;;;1.60;99.90;;;;;;5033605;28;20682;-72
2021/01/09 19:46:46;;;;;;;34.37;13.97;;;1.60;99.90;;;;;;5033647;28;20252;-72
2021/01/09 19:49:14;;;;;;;22.83;12.70;;;1.60;99.90;;;;;;5033503;28;20217;-73
2021/01/09 19:51:41;;;;;;;30.00;13.23;;;1.60;99.90;;;;;;5033218;28;20228;-73
2021/01/09 19:54:08;;;;;;;29.83;13.30;;;1.70;99.90;;;;;;5033572;28;20213;-71
2021/01/09 19:56:35;;;;;;;24.77;13.13;;;1.60;99.90;;;;;;5033397;28;20240;-71
2021/01/09 19:59:02;;;;;;;34.20;12.83;;;1.60;99.90;;;;;;5033607;28;20210;-71
2021/01/09 20:01:28;;;;;;;29.50;13.93;;;1.60;99.90;;;;;;5033779;28;20552;-72
2021/01/09 20:03:54;;;;;;;25.27;11.37;;;1.70;99.90;;;;;;5033287;28;20211;-73
2021/01/09 20:06:21;;;;;;;26.93;13.07;;;1.70;99.90;;;;;;5033155;28;20232;-72
2021/01/09 20:08:48;;;;;;;25.50;13.37;;;1.80;99.90;;;;;;5033263;28;20572;-71
2021/01/09 20:11:15;;;;;;;24.60;12.93;;;1.80;99.90;;;;;;5033054;28;20544;-73
2021/01/09 20:13:42;;;;;;;26.73;13.50;;;1.90;99.90;;;;;;5032669;28;20209;-73
2021/01/09 20:16:08;;;;;;;23.30;12.03;;;1.80;99.90;;;;;;5033205;28;20279;-71
2021/01/09 20:18:38;;;;;;;23.00;12.50;;;1.80;99.90;;;;;;5033213;28;20204;-72
2021/01/09 20:21:05;;;;;;;23.57;12.37;;;1.60;99.90;;;;;;5032988;28;20209;-72
2021/01/09 20:23:33;;;;;;;29.43;13.57;;;1.70;99.90;;;;;;5033063;28;20209;-69
2021/01/09 20:26:00;;;;;;;26.70;12.77;;;1.80;99.90;;;;;;5033272;28;20255;-69
2021/01/09 20:28:26;;;;;;;30.37;14.70;;;1.80;99.90;;;;;;5032873;28;20680;-70
2021/01/09 20:30:53;;;;;;;27.33;13.67;;;2.00;99.90;;;;;;5033058;28;20231;-72
2021/01/09 20:33:19;;;;;;;26.00;13.13;;;2.00;99.90;;;;;;5032886;28;20236;-72
2021/01/09 20:35:45;;;;;;;32.03;15.50;;;2.10;99.90;;;;;;5032751;28;20229;-72
2021/01/09 20:38:11;;;;;;;27.70;14.73;;;2.10;99.90;;;;;;5033116;28;20213;-71
2021/01/09 20:40:39;;;;;;;31.27;14.03;;;2.10;99.90;;;;;;5032932;28;20208;-71
2021/01/09 20:43:05;;;;;;;31.37;14.60;;;2.20;99.90;;;;;;5033007;28;20219;-71
2021/01/09 20:45:31;;;;;;;36.20;14.93;;;2.20;99.90;;;;;;5032595;28;20695;-72
2021/01/09 20:47:59;;;;;;;32.40;14.73;;;2.10;99.90;;;;;;5032577;28;20212;-71
2021/01/09 20:50:25;;;;;;;25.30;14.13;;;2.10;99.90;;;;;;5032691;28;20220;-72
2021/01/09 20:52:52;;;;;;;29.37;14.13;;;2.00;99.90;;;;;;5032844;28;20248;-71
2021/01/09 20:55:21;;;;;;;31.67;14.87;;;2.00;99.90;;;;;;5032765;28;20232;-71
2021/01/09 20:57:48;;;;;;;32.33;13.77;;;2.00;99.90;;;;;;5032653;28;20200;-72
2021/01/09 21:00:18;;;;;;;25.07;12.43;;;2.20;99.90;;;;;;5032572;28;20682;-73
2021/01/09 21:02:44;;;;;;;28.60;14.13;;;2.10;99.90;;;;;;5032733;28;20575;-72
2021/01/09 21:05:12;;;;;;;29.00;12.93;;;2.10;99.90;;;;;;5032499;28;20229;-73
2021/01/09 21:07:38;;;;;;;26.50;12.50;;;2.30;99.90;;;;;;5032765;28;20556;-71
2021/01/09 21:10:05;;;;;;;32.67;14.57;;;2.20;99.90;;;;;;5032665;28;20254;-71
2021/01/09 21:12:31;;;;;;;31.00;13.90;;;2.30;99.90;;;;;;5032637;28;20256;-71
2021/01/09 21:14:58;;;;;;;31.47;12.87;;;2.40;99.90;;;;;;5032689;28;20205;-73
2021/01/09 21:17:25;;;;;;;27.53;13.03;;;2.30;99.90;;;;;;5032930;28;20208;-71
2021/01/09 21:19:51;;;;;;;30.20;12.83;;;2.40;99.90;;;;;;5032228;28;20575;-72
2021/01/09 21:22:17;;;;;;;25.13;10.80;;;2.40;99.90;;;;;;5032481;28;20205;-71
2021/01/09 21:24:43;;;;;;;23.17;11.87;;;2.50;99.90;;;;;;5035490;28;20205;-72
2021/01/09 21:27:10;;;;;;;22.27;10.63;;;2.60;99.90;;;;;;5035989;28;20225;-71
2021/01/09 21:29:36;;;;;;;25.20;10.97;;;2.80;99.90;;;;;;5035575;28;20575;-71
2021/01/09 21:32:04;;;;;;;27.37;10.53;;;2.70;99.90;;;;;;5035504;28;20760;-71
2021/01/09 21:34:31;;;;;;;29.93;11.57;;;2.60;99.90;;;;;;5035226;28;20209;-71
2021/01/09 21:37:00;;;;;;;28.30;11.37;;;2.70;99.90;;;;;;5035640;28;20229;-72
2021/01/09 21:39:28;;;;;;;25.83;11.07;;;2.60;99.90;;;;;;5035917;28;20227;-71
2021/01/09 21:41:58;;;;;;;28.03;10.23;;;2.50;99.90;;;;;;5035481;28;20289;-71
2021/01/09 21:44:25;;;;;;;24.20;10.33;;;2.50;99.90;;;;;;5035345;28;20205;-70
2021/01/09 21:46:51;;;;;;;25.47;10.77;;;2.50;99.90;;;;;;5035761;28;20243;-72
2021/01/09 21:49:18;;;;;;;25.23;9.80;;;2.40;99.90;;;;;;5035262;28;20212;-70
2021/01/09 21:51:50;;;;;;;26.97;11.67;;;2.50;99.90;;;;;;5035472;28;20239;-70
2021/01/09 21:54:17;;;;;;;22.00;9.53;;;2.50;99.90;;;;;;5035391;28;20223;-71
2021/01/09 21:56:43;;;;;;;28.83;10.70;;;2.50;99.90;;;;;;5054349;28;20220;-72
2021/01/09 21:59:09;;;;;;;28.67;10.57;;;2.50;99.90;;;;;;5054277;28;20204;-72
